sensor_id;sensor_type;location;lat;lon;timestamp;P1;durP1;ratioP1;P2;durP2;ratioP2
41677;SDS011;27364;49.026;8.712;2023-04-06T00:00:36;13.00;;;8.48;;
41677;SDS011;27364;49.026;8.712;2023-04-06T00:03:02;15.43;;;8.52;;
41677;SDS011;27364;49.026;8.712;2023-04-06T00:05:28;14.80;;;8.35;;
41677;SDS011;27364;49.026;8.712;2023-04-06T00:07:55;12.70;;;8.40;;
41677;SDS011;27364;49.026;8.712;2023-04-06T00:10:24;12.55;;;8.43;;
41677;SDS011;27364;49.026;8.712;2023-04-06T00:12:50;11.70;;;7.78;;
41677;SDS011;27364;49.026;8.712;2023-04-06T00:15:15;13.52;;;8.55;;
41677;SDS011;27364;49.026;8.712;2023-04-06T00:17:41;11.57;;;8.13;;
41677;SDS011;27364;49.026;8.712;2023-04-06T00:20:07;12.55;;;8.50;;
41677;SDS011;27364;49.026;8.712;2023-04-06T00:22:33;12.80;;;7.97;;
41677;SDS011;27364;49.026;8.712;2023-04-06T00:24:59;13.20;;;8.10;;
41677;SDS011;27364;49.026;8.712;2023-04-06T00:27:24;13.68;;;8.60;;
41677;SDS011;27364;49.026;8.712;2023-04-06T00:29:50;12.20;;;8.52;;
41677;SDS011;27364;49.026;8.712;2023-04-06T00:32:15;13.20;;;8.40;;
41677;SDS011;27364;49.026;8.712;2023-04-06T00:34:41;13.30;;;8.65;;
41677;SDS011;27364;49.026;8.712;2023-04-06T00:37:07;14.38;;;8.25;;
41677;SDS011;27364;49.026;8.712;2023-04-06T00:39:32;15.55;;;8.75;;
41677;SDS011;27364;49.026;8.712;2023-04-06T00:41:58;13.30;;;8.95;;
41677;SDS011;27364;49.026;8.712;2023-04-06T00:44:23;13.00;;;8.23;;
41677;SDS011;27364;49.026;8.712;2023-04-06T00:46:49;15.65;;;9.63;;
41677;SDS011;27364;49.026;8.712;2023-04-06T00:49:15;14.63;;;8.70;;
41677;SDS011;27364;49.026;8.712;2023-04-06T00:51:41;13.65;;;8.55;;
41677;SDS011;27364;49.026;8.712;2023-04-06T00:54:06;16.88;;;9.07;;
41677;SDS011;27364;49.026;8.712;2023-04-06T00:56:32;11.02;;;8.00;;
41677;SDS011;27364;49.026;8.712;2023-04-06T00:58:57;14.23;;;9.02;;
41677;SDS011;27364;49.026;8.712;2023-04-06T01:01:23;12.35;;;8.35;;
41677;SDS011;27364;49.026;8.712;2023-04-06T01:03:50;11.18;;;7.30;;
41677;SDS011;27364;49.026;8.712;2023-04-06T01:06:16;10.23;;;7.40;;
41677;SDS011;27364;49.026;8.712;2023-04-06T01:08:42;11.18;;;7.65;;
41677;SDS011;27364;49.026;8.712;2023-04-06T01:11:07;12.40;;;7.40;;
41677;SDS011;27364;49.026;8.712;2023-04-06T01:13:33;14.40;;;7.70;;
41677;SDS011;27364;49.026;8.712;2023-04-06T01:15:58;13.93;;;7.80;;
41677;SDS011;27364;49.026;8.712;2023-04-06T01:18:28;12.60;;;8.95;;
41677;SDS011;27364;49.026;8.712;2023-04-06T01:20:54;12.35;;;7.53;;
41677;SDS011;27364;49.026;8.712;2023-04-06T01:23:20;10.70;;;7.35;;
41677;SDS011;27364;49.026;8.712;2023-04-06T01:25:46;11.43;;;7.88;;
41677;SDS011;27364;49.026;8.712;2023-04-06T01:28:12;11.02;;;7.32;;
41677;SDS011;27364;49.026;8.712;2023-04-06T01:30:37;9.50;;;6.20;;
41677;SDS011;27364;49.026;8.712;2023-04-06T01:33:03;10.35;;;6.40;;
41677;SDS011;27364;49.026;8.712;2023-04-06T01:35:29;9.02;;;6.03;;
41677;SDS011;27364;49.026;8.712;2023-04-06T01:37:55;11.63;;;6.63;;
41677;SDS011;27364;49.026;8.712;2023-04-06T01:40:21;9.77;;;6.13;;
41677;SDS011;27364;49.026;8.712;2023-04-06T01:42:46;10.32;;;6.20;;
41677;SDS011;27364;49.026;8.712;2023-04-06T01:45:12;9.48;;;6.45;;
41677;SDS011;27364;49.026;8.712;2023-04-06T01:47:38;8.40;;;5.90;;
41677;SDS011;27364;49.026;8.712;2023-04-06T01:50:03;8.82;;;6.45;;
41677;SDS011;27364;49.026;8.712;2023-04-06T01:52:31;8.80;;;6.30;;
41677;SDS011;27364;49.026;8.712;2023-04-06T01:54:57;11.57;;;5.70;;
41677;SDS011;27364;49.026;8.712;2023-04-06T01:57:23;10.15;;;6.28;;
41677;SDS011;27364;49.026;8.712;2023-04-06T01:59:50;10.77;;;6.13;;
41677;SDS011;27364;49.026;8.712;2023-04-06T02:02:15;8.38;;;5.88;;
41677;SDS011;27364;49.026;8.712;2023-04-06T02:04:41;9.05;;;6.28;;
41677;SDS011;27364;49.026;8.712;2023-04-06T02:07:07;10.73;;;6.38;;
41677;SDS011;27364;49.026;8.712;2023-04-06T02:09:32;9.23;;;6.03;;
41677;SDS011;27364;49.026;8.712;2023-04-06T02:11:58;13.82;;;6.53;;
41677;SDS011;27364;49.026;8.712;2023-04-06T02:14:26;8.63;;;6.03;;
41677;SDS011;27364;49.026;8.712;2023-04-06T02:16:52;9.73;;;6.30;;
41677;SDS011;27364;49.026;8.712;2023-04-06T02:19:18;10.05;;;6.47;;
41677;SDS011;27364;49.026;8.712;2023-04-06T02:21:44;10.40;;;7.55;;
41677;SDS011;27364;49.026;8.712;2023-04-06T02:24:09;12.15;;;7.78;;
41677;SDS011;27364;49.026;8.712;2023-04-06T02:26:35;11.55;;;8.35;;
41677;SDS011;27364;49.026;8.712;2023-04-06T02:29:00;12.93;;;8.48;;
41677;SDS011;27364;49.026;8.712;2023-04-06T02:31:27;12.85;;;8.43;;
41677;SDS011;27364;49.026;8.712;2023-04-06T02:33:52;12.75;;;8.55;;
41677;SDS011;27364;49.026;8.712;2023-04-06T02:36:18;12.52;;;8.30;;
41677;SDS011;27364;49.026;8.712;2023-04-06T02:38:43;12.18;;;7.85;;
41677;SDS011;27364;49.026;8.712;2023-04-06T02:41:09;13.48;;;8.15;;
41677;SDS011;27364;49.026;8.712;2023-04-06T02:43:35;12.13;;;9.13;;
41677;SDS011;27364;49.026;8.712;2023-04-06T02:46:00;12.52;;;9.05;;
41677;SDS011;27364;49.026;8.712;2023-04-06T02:48:26;12.35;;;8.98;;
41677;SDS011;27364;49.026;8.712;2023-04-06T02:50:51;12.90;;;9.82;;
41677;SDS011;27364;49.026;8.712;2023-04-06T02:53:17;17.02;;;10.52;;
41677;SDS011;27364;49.026;8.712;2023-04-06T02:55:43;16.20;;;10.13;;
41677;SDS011;27364;49.026;8.712;2023-04-06T02:58:08;15.60;;;9.60;;
41677;SDS011;27364;49.026;8.712;2023-04-06T03:00:34;14.35;;;9.45;;
41677;SDS011;27364;49.026;8.712;2023-04-06T03:03:00;11.95;;;8.55;;
41677;SDS011;27364;49.026;8.712;2023-04-06T03:05:26;12.38;;;7.70;;
41677;SDS011;27364;49.026;8.712;2023-04-06T03:07:52;16.35;;;8.40;;
41677;SDS011;27364;49.026;8.712;2023-04-06T03:10:17;13.15;;;8.57;;
41677;SDS011;27364;49.026;8.712;2023-04-06T03:12:43;15.35;;;9.50;;
41677;SDS011;27364;49.026;8.712;2023-04-06T03:15:09;15.35;;;9.40;;
41677;SDS011;27364;49.026;8.712;2023-04-06T03:17:35;13.18;;;9.18;;
41677;SDS011;27364;49.026;8.712;2023-04-06T03:20:01;12.20;;;8.75;;
41677;SDS011;27364;49.026;8.712;2023-04-06T03:22:27;13.68;;;8.68;;
41677;SDS011;27364;49.026;8.712;2023-04-06T03:24:53;13.60;;;9.05;;
41677;SDS011;27364;49.026;8.712;2023-04-06T03:27:19;12.65;;;8.50;;
41677;SDS011;27364;49.026;8.712;2023-04-06T03:29:44;12.15;;;8.43;;
41677;SDS011;27364;49.026;8.712;2023-04-06T03:32:10;14.60;;;8.52;;
41677;SDS011;27364;49.026;8.712;2023-04-06T03:34:36;13.75;;;8.73;;
41677;SDS011;27364;49.026;8.712;2023-04-06T03:37:03;12.60;;;8.85;;
41677;SDS011;27364;49.026;8.712;2023-04-06T03:39:28;12.75;;;8.52;;
41677;SDS011;27364;49.026;8.712;2023-04-06T03:41:54;12.30;;;9.05;;
41677;SDS011;27364;49.026;8.712;2023-04-06T03:44:20;14.23;;;8.70;;
41677;SDS011;27364;49.026;8.712;2023-04-06T03:46:45;14.90;;;9.50;;
41677;SDS011;27364;49.026;8.712;2023-04-06T03:49:11;13.02;;;8.95;;
41677;SDS011;27364;49.026;8.712;2023-04-06T03:51:36;13.93;;;8.65;;
41677;SDS011;27364;49.026;8.712;2023-04-06T03:54:02;11.52;;;8.45;;
41677;SDS011;27364;49.026;8.712;2023-04-06T03:56:28;13.25;;;9.25;;
41677;SDS011;27364;49.026;8.712;2023-04-06T03:58:54;13.77;;;8.68;;
41677;SDS011;27364;49.026;8.712;2023-04-06T04:01:19;13.65;;;8.73;;
41677;SDS011;27364;49.026;8.712;2023-04-06T04:03:45;13.85;;;9.18;;
41677;SDS011;27364;49.026;8.712;2023-04-06T04:06:11;17.75;;;9.73;;
41677;SDS011;27364;49.026;8.712;2023-04-06T04:08:36;13.02;;;9.30;;
41677;SDS011;27364;49.026;8.712;2023-04-06T04:11:02;14.18;;;9.75;;
41677;SDS011;27364;49.026;8.712;2023-04-06T04:13:27;15.45;;;9.35;;
41677;SDS011;27364;49.026;8.712;2023-04-06T04:15:53;14.40;;;9.68;;
41677;SDS011;27364;49.026;8.712;2023-04-06T04:18:18;13.65;;;9.10;;
41677;SDS011;27364;49.026;8.712;2023-04-06T04:20:44;15.63;;;10.15;;
41677;SDS011;27364;49.026;8.712;2023-04-06T04:23:10;15.05;;;9.85;;
41677;SDS011;27364;49.026;8.712;2023-04-06T04:25:35;17.75;;;10.75;;
41677;SDS011;27364;49.026;8.712;2023-04-06T04:28:01;18.48;;;9.32;;
41677;SDS011;27364;49.026;8.712;2023-04-06T04:30:27;26.63;;;13.07;;
41677;SDS011;27364;49.026;8.712;2023-04-06T04:32:53;15.13;;;9.35;;
41677;SDS011;27364;49.026;8.712;2023-04-06T04:35:18;18.55;;;9.75;;
41677;SDS011;27364;49.026;8.712;2023-04-06T04:37:44;20.15;;;10.57;;
41677;SDS011;27364;49.026;8.712;2023-04-06T04:40:10;16.63;;;9.73;;
41677;SDS011;27364;49.026;8.712;2023-04-06T04:42:36;11.38;;;7.18;;
41677;SDS011;27364;49.026;8.712;2023-04-06T04:45:02;12.82;;;7.45;;
41677;SDS011;27364;49.026;8.712;2023-04-06T04:47:28;9.57;;;6.40;;
41677;SDS011;27364;49.026;8.712;2023-04-06T04:49:53;8.98;;;6.45;;
41677;SDS011;27364;49.026;8.712;2023-04-06T04:52:19;10.05;;;6.38;;
41677;SDS011;27364;49.026;8.712;2023-04-06T04:54:44;9.88;;;7.18;;
41677;SDS011;27364;49.026;8.712;2023-04-06T04:57:11;9.90;;;6.68;;
41677;SDS011;27364;49.026;8.712;2023-04-06T04:59:37;16.70;;;7.72;;
41677;SDS011;27364;49.026;8.712;2023-04-06T05:02:03;22.85;;;12.30;;
41677;SDS011;27364;49.026;8.712;2023-04-06T05:04:28;21.80;;;12.52;;
41677;SDS011;27364;49.026;8.712;2023-04-06T05:09:30;23.35;;;12.00;;
41677;SDS011;27364;49.026;8.712;2023-04-06T05:11:56;23.63;;;12.32;;
41677;SDS011;27364;49.026;8.712;2023-04-06T05:14:22;19.52;;;11.13;;
41677;SDS011;27364;49.026;8.712;2023-04-06T05:16:47;17.38;;;9.93;;
41677;SDS011;27364;49.026;8.712;2023-04-06T05:19:13;13.95;;;8.20;;
41677;SDS011;27364;49.026;8.712;2023-04-06T05:21:38;13.82;;;7.43;;
41677;SDS011;27364;49.026;8.712;2023-04-06T05:24:04;10.93;;;7.07;;
41677;SDS011;27364;49.026;8.712;2023-04-06T05:26:30;16.17;;;7.90;;
41677;SDS011;27364;49.026;8.712;2023-04-06T05:28:56;17.45;;;8.82;;
41677;SDS011;27364;49.026;8.712;2023-04-06T05:31:21;16.83;;;8.18;;
41677;SDS011;27364;49.026;8.712;2023-04-06T05:33:47;12.75;;;7.15;;
41677;SDS011;27364;49.026;8.712;2023-04-06T05:36:12;12.35;;;6.85;;
41677;SDS011;27364;49.026;8.712;2023-04-06T05:38:38;11.63;;;7.25;;
41677;SDS011;27364;49.026;8.712;2023-04-06T05:41:04;11.38;;;7.15;;
41677;SDS011;27364;49.026;8.712;2023-04-06T05:43:29;10.90;;;6.75;;
41677;SDS011;27364;49.026;8.712;2023-04-06T05:45:55;13.88;;;6.93;;
41677;SDS011;27364;49.026;8.712;2023-04-06T05:48:20;24.33;;;8.88;;
41677;SDS011;27364;49.026;8.712;2023-04-06T05:50:49;25.95;;;9.25;;
41677;SDS011;27364;49.026;8.712;2023-04-06T05:53:21;26.52;;;9.63;;
41677;SDS011;27364;49.026;8.712;2023-04-06T05:55:46;11.60;;;6.88;;
41677;SDS011;27364;49.026;8.712;2023-04-06T05:58:12;9.77;;;6.22;;
41677;SDS011;27364;49.026;8.712;2023-04-06T06:00:38;10.60;;;6.40;;
41677;SDS011;27364;49.026;8.712;2023-04-06T06:03:03;15.55;;;7.57;;
41677;SDS011;27364;49.026;8.712;2023-04-06T06:05:30;12.15;;;7.38;;
41677;SDS011;27364;49.026;8.712;2023-04-06T06:07:56;14.40;;;7.57;;
41677;SDS011;27364;49.026;8.712;2023-04-06T06:10:22;14.73;;;7.68;;
41677;SDS011;27364;49.026;8.712;2023-04-06T06:12:48;11.73;;;7.65;;
41677;SDS011;27364;49.026;8.712;2023-04-06T06:15:13;15.30;;;7.32;;
41677;SDS011;27364;49.026;8.712;2023-04-06T06:17:39;13.70;;;8.15;;
41677;SDS011;27364;49.026;8.712;2023-04-06T06:20:08;13.90;;;7.35;;
41677;SDS011;27364;49.026;8.712;2023-04-06T06:22:35;13.75;;;7.97;;
41677;SDS011;27364;49.026;8.712;2023-04-06T06:25:01;15.45;;;8.20;;
41677;SDS011;27364;49.026;8.712;2023-04-06T06:27:27;15.73;;;9.35;;
41677;SDS011;27364;49.026;8.712;2023-04-06T06:29:53;12.73;;;8.70;;
41677;SDS011;27364;49.026;8.712;2023-04-06T06:32:19;13.52;;;9.30;;
41677;SDS011;27364;49.026;8.712;2023-04-06T06:34:48;13.63;;;8.57;;
41677;SDS011;27364;49.026;8.712;2023-04-06T06:37:13;13.90;;;9.20;;
41677;SDS011;27364;49.026;8.712;2023-04-06T06:39:39;15.40;;;9.27;;
41677;SDS011;27364;49.026;8.712;2023-04-06T06:42:05;13.18;;;8.38;;
41677;SDS011;27364;49.026;8.712;2023-04-06T06:44:30;13.98;;;9.35;;
41677;SDS011;27364;49.026;8.712;2023-04-06T06:46:56;17.30;;;9.88;;
41677;SDS011;27364;49.026;8.712;2023-04-06T06:49:21;16.80;;;10.52;;
41677;SDS011;27364;49.026;8.712;2023-04-06T06:51:47;16.10;;;11.00;;
41677;SDS011;27364;49.026;8.712;2023-04-06T06:54:13;16.83;;;11.68;;
41677;SDS011;27364;49.026;8.712;2023-04-06T06:56:38;16.80;;;10.98;;
41677;SDS011;27364;49.026;8.712;2023-04-06T06:59:05;17.65;;;11.85;;
41677;SDS011;27364;49.026;8.712;2023-04-06T07:01:34;19.55;;;11.15;;
41677;SDS011;27364;49.026;8.712;2023-04-06T07:04:00;16.13;;;11.25;;
41677;SDS011;27364;49.026;8.712;2023-04-06T07:06:25;22.08;;;11.57;;
41677;SDS011;27364;49.026;8.712;2023-04-06T07:08:51;16.77;;;11.90;;
41677;SDS011;27364;49.026;8.712;2023-04-06T07:11:16;16.98;;;11.40;;
41677;SDS011;27364;49.026;8.712;2023-04-06T07:13:42;16.85;;;11.48;;
41677;SDS011;27364;49.026;8.712;2023-04-06T07:16:08;16.92;;;11.23;;
41677;SDS011;27364;49.026;8.712;2023-04-06T07:18:33;16.25;;;10.90;;
41677;SDS011;27364;49.026;8.712;2023-04-06T07:20:59;17.95;;;11.25;;
41677;SDS011;27364;49.026;8.712;2023-04-06T07:23:25;18.60;;;12.75;;
41677;SDS011;27364;49.026;8.712;2023-04-06T07:25:50;17.70;;;11.35;;
41677;SDS011;27364;49.026;8.712;2023-04-06T07:28:17;17.98;;;11.80;;
41677;SDS011;27364;49.026;8.712;2023-04-06T07:30:43;16.15;;;11.95;;
41677;SDS011;27364;49.026;8.712;2023-04-06T07:33:08;16.08;;;11.98;;
41677;SDS011;27364;49.026;8.712;2023-04-06T07:35:34;16.15;;;11.85;;
41677;SDS011;27364;49.026;8.712;2023-04-06T07:38:01;16.30;;;10.95;;
41677;SDS011;27364;49.026;8.712;2023-04-06T07:40:27;13.60;;;10.57;;
41677;SDS011;27364;49.026;8.712;2023-04-06T07:42:53;18.23;;;11.27;;
41677;SDS011;27364;49.026;8.712;2023-04-06T07:45:19;16.10;;;11.35;;
41677;SDS011;27364;49.026;8.712;2023-04-06T07:47:45;14.38;;;10.02;;
41677;SDS011;27364;49.026;8.712;2023-04-06T07:50:11;15.25;;;10.18;;
41677;SDS011;27364;49.026;8.712;2023-04-06T07:52:37;16.23;;;9.43;;
41677;SDS011;27364;49.026;8.712;2023-04-06T07:55:05;12.07;;;8.93;;
41677;SDS011;27364;49.026;8.712;2023-04-06T07:57:31;11.00;;;7.88;;
41677;SDS011;27364;49.026;8.712;2023-04-06T07:59:57;12.68;;;8.43;;
41677;SDS011;27364;49.026;8.712;2023-04-06T08:02:22;11.02;;;7.95;;
41677;SDS011;27364;49.026;8.712;2023-04-06T08:04:48;13.15;;;8.20;;
41677;SDS011;27364;49.026;8.712;2023-04-06T08:07:14;10.23;;;7.50;;
41677;SDS011;27364;49.026;8.712;2023-04-06T08:09:42;11.48;;;7.47;;
41677;SDS011;27364;49.026;8.712;2023-04-06T08:12:07;10.23;;;7.03;;
41677;SDS011;27364;49.026;8.712;2023-04-06T08:14:33;10.35;;;7.88;;
41677;SDS011;27364;49.026;8.712;2023-04-06T08:16:59;11.25;;;7.78;;
41677;SDS011;27364;49.026;8.712;2023-04-06T08:19:27;11.32;;;7.85;;
41677;SDS011;27364;49.026;8.712;2023-04-06T08:21:53;10.60;;;7.88;;
41677;SDS011;27364;49.026;8.712;2023-04-06T08:24:18;12.00;;;7.18;;
41677;SDS011;27364;49.026;8.712;2023-04-06T08:29:13;11.63;;;8.20;;
41677;SDS011;27364;49.026;8.712;2023-04-06T08:31:39;12.50;;;8.77;;
41677;SDS011;27364;49.026;8.712;2023-04-06T08:34:05;11.57;;;8.18;;
41677;SDS011;27364;49.026;8.712;2023-04-06T08:36:31;11.65;;;8.02;;
41677;SDS011;27364;49.026;8.712;2023-04-06T08:38:58;11.65;;;8.45;;
41677;SDS011;27364;49.026;8.712;2023-04-06T08:41:25;10.10;;;8.10;;
41677;SDS011;27364;49.026;8.712;2023-04-06T08:46:26;12.18;;;7.97;;
41677;SDS011;27364;49.026;8.712;2023-04-06T08:48:56;9.80;;;7.65;;
41677;SDS011;27364;49.026;8.712;2023-04-06T08:51:24;10.43;;;7.40;;
41677;SDS011;27364;49.026;8.712;2023-04-06T08:53:53;11.68;;;8.80;;
41677;SDS011;27364;49.026;8.712;2023-04-06T08:56:23;9.83;;;8.40;;
41677;SDS011;27364;49.026;8.712;2023-04-06T08:58:50;11.63;;;8.50;;
41677;SDS011;27364;49.026;8.712;2023-04-06T09:01:18;11.98;;;7.43;;
41677;SDS011;27364;49.026;8.712;2023-04-06T09:03:49;10.25;;;7.97;;
41677;SDS011;27364;49.026;8.712;2023-04-06T09:06:16;9.05;;;7.55;;
41677;SDS011;27364;49.026;8.712;2023-04-06T09:08:42;10.77;;;7.88;;
41677;SDS011;27364;49.026;8.712;2023-04-06T09:11:08;11.77;;;7.78;;
41677;SDS011;27364;49.026;8.712;2023-04-06T09:13:44;10.65;;;7.45;;
41677;SDS011;27364;49.026;8.712;2023-04-06T09:16:11;9.75;;;6.97;;
41677;SDS011;27364;49.026;8.712;2023-04-06T09:18:37;9.52;;;7.45;;
41677;SDS011;27364;49.026;8.712;2023-04-06T09:21:03;9.85;;;6.82;;
41677;SDS011;27364;49.026;8.712;2023-04-06T09:23:30;8.13;;;6.85;;
41677;SDS011;27364;49.026;8.712;2023-04-06T09:26:10;8.82;;;6.53;;
41677;SDS011;27364;49.026;8.712;2023-04-06T09:28:44;8.95;;;6.70;;
41677;SDS011;27364;49.026;8.712;2023-04-06T09:31:14;10.52;;;7.35;;
41677;SDS011;27364;49.026;8.712;2023-04-06T09:33:41;9.35;;;6.68;;
41677;SDS011;27364;49.026;8.712;2023-04-06T09:38:50;9.02;;;6.05;;
41677;SDS011;27364;49.026;8.712;2023-04-06T09:41:20;7.93;;;5.40;;
41677;SDS011;27364;49.026;8.712;2023-04-06T09:44:07;7.82;;;5.60;;
41677;SDS011;27364;49.026;8.712;2023-04-06T09:46:35;6.88;;;5.47;;
41677;SDS011;27364;49.026;8.712;2023-04-06T09:49:05;7.78;;;5.80;;
41677;SDS011;27364;49.026;8.712;2023-04-06T09:51:42;8.98;;;6.30;;
41677;SDS011;27364;49.026;8.712;2023-04-06T09:54:15;7.53;;;5.80;;
41677;SDS011;27364;49.026;8.712;2023-04-06T09:56:45;10.82;;;6.57;;
41677;SDS011;27364;49.026;8.712;2023-04-06T09:59:13;9.52;;;6.20;;
41677;SDS011;27364;49.026;8.712;2023-04-06T10:01:44;7.97;;;6.22;;
41677;SDS011;27364;49.026;8.712;2023-04-06T10:04:16;7.93;;;5.70;;
41677;SDS011;27364;49.026;8.712;2023-04-06T10:06:44;9.23;;;6.80;;
41677;SDS011;27364;49.026;8.712;2023-04-06T10:09:16;10.02;;;6.50;;
41677;SDS011;27364;49.026;8.712;2023-04-06T10:11:42;9.75;;;6.50;;
41677;SDS011;27364;49.026;8.712;2023-04-06T10:14:08;9.32;;;6.90;;
41677;SDS011;27364;49.026;8.712;2023-04-06T10:16:36;9.15;;;7.22;;
41677;SDS011;27364;49.026;8.712;2023-04-06T10:19:07;8.00;;;6.30;;
41677;SDS011;27364;49.026;8.712;2023-04-06T10:21:38;8.65;;;6.85;;
41677;SDS011;27364;49.026;8.712;2023-04-06T10:24:07;9.02;;;6.85;;
41677;SDS011;27364;49.026;8.712;2023-04-06T10:26:38;7.82;;;6.57;;
41677;SDS011;27364;49.026;8.712;2023-04-06T10:29:04;9.52;;;6.93;;
41677;SDS011;27364;49.026;8.712;2023-04-06T10:31:30;8.30;;;6.65;;
41677;SDS011;27364;49.026;8.712;2023-04-06T10:33:56;8.27;;;6.43;;
41677;SDS011;27364;49.026;8.712;2023-04-06T10:36:24;9.02;;;6.30;;
41677;SDS011;27364;49.026;8.712;2023-04-06T10:39:25;8.68;;;7.18;;
41677;SDS011;27364;49.026;8.712;2023-04-06T10:41:49;9.00;;;6.90;;
41677;SDS011;27364;49.026;8.712;2023-04-06T10:44:21;9.00;;;6.18;;
41677;SDS011;27364;49.026;8.712;2023-04-06T10:46:57;8.13;;;6.38;;
41677;SDS011;27364;49.026;8.712;2023-04-06T10:49:25;8.50;;;6.50;;
41677;SDS011;27364;49.026;8.712;2023-04-06T10:51:56;8.05;;;6.40;;
41677;SDS011;27364;49.026;8.712;2023-04-06T10:54:31;8.70;;;6.57;;
41677;SDS011;27364;49.026;8.712;2023-04-06T10:56:58;11.43;;;7.33;;
41677;SDS011;27364;49.026;8.712;2023-04-06T10:59:24;9.63;;;7.28;;
41677;SDS011;27364;49.026;8.712;2023-04-06T11:01:50;10.20;;;7.45;;
41677;SDS011;27364;49.026;8.712;2023-04-06T11:04:16;10.23;;;7.15;;
41677;SDS011;27364;49.026;8.712;2023-04-06T11:06:46;10.57;;;7.28;;
41677;SDS011;27364;49.026;8.712;2023-04-06T11:09:22;9.18;;;6.88;;
41677;SDS011;27364;49.026;8.712;2023-04-06T11:11:52;10.40;;;7.25;;
41677;SDS011;27364;49.026;8.712;2023-04-06T11:14:18;10.32;;;7.70;;
41677;SDS011;27364;49.026;8.712;2023-04-06T11:16:45;11.65;;;7.25;;
41677;SDS011;27364;49.026;8.712;2023-04-06T11:19:12;9.30;;;6.80;;
41677;SDS011;27364;49.026;8.712;2023-04-06T11:21:39;8.35;;;6.57;;
41677;SDS011;27364;49.026;8.712;2023-04-06T11:29:24;12.57;;;7.55;;
41677;SDS011;27364;49.026;8.712;2023-04-06T11:31:57;10.40;;;7.25;;
41677;SDS011;27364;49.026;8.712;2023-04-06T11:34:25;9.13;;;6.60;;
41677;SDS011;27364;49.026;8.712;2023-04-06T11:36:56;10.52;;;6.70;;
41677;SDS011;27364;49.026;8.712;2023-04-06T11:39:24;10.85;;;6.97;;
41677;SDS011;27364;49.026;8.712;2023-04-06T11:44:36;9.98;;;7.18;;
41677;SDS011;27364;49.026;8.712;2023-04-06T11:47:04;8.23;;;6.32;;
41677;SDS011;27364;49.026;8.712;2023-04-06T11:49:31;8.50;;;6.43;;
41677;SDS011;27364;49.026;8.712;2023-04-06T11:51:58;9.60;;;7.32;;
41677;SDS011;27364;49.026;8.712;2023-04-06T11:54:31;10.40;;;7.53;;
41677;SDS011;27364;49.026;8.712;2023-04-06T11:57:04;9.25;;;6.47;;
41677;SDS011;27364;49.026;8.712;2023-04-06T11:59:30;9.77;;;6.78;;
41677;SDS011;27364;49.026;8.712;2023-04-06T12:01:57;8.38;;;6.45;;
41677;SDS011;27364;49.026;8.712;2023-04-06T12:04:23;8.07;;;6.57;;
41677;SDS011;27364;49.026;8.712;2023-04-06T12:06:49;8.52;;;6.65;;
41677;SDS011;27364;49.026;8.712;2023-04-06T12:09:16;9.27;;;7.03;;
41677;SDS011;27364;49.026;8.712;2023-04-06T12:11:42;9.00;;;7.00;;
41677;SDS011;27364;49.026;8.712;2023-04-06T12:14:08;8.63;;;6.68;;
41677;SDS011;27364;49.026;8.712;2023-04-06T12:16:34;9.48;;;7.20;;
41677;SDS011;27364;49.026;8.712;2023-04-06T12:19:00;8.77;;;6.25;;
41677;SDS011;27364;49.026;8.712;2023-04-06T12:21:29;9.07;;;6.82;;
41677;SDS011;27364;49.026;8.712;2023-04-06T12:23:58;9.63;;;7.15;;
41677;SDS011;27364;49.026;8.712;2023-04-06T12:26:25;10.05;;;6.75;;
41677;SDS011;27364;49.026;8.712;2023-04-06T12:28:51;10.75;;;6.88;;
41677;SDS011;27364;49.026;8.712;2023-04-06T12:31:17;8.77;;;7.47;;
41677;SDS011;27364;49.026;8.712;2023-04-06T12:33:46;8.77;;;7.27;;
41677;SDS011;27364;49.026;8.712;2023-04-06T12:36:16;11.45;;;6.82;;
41677;SDS011;27364;49.026;8.712;2023-04-06T12:38:47;8.70;;;7.05;;
41677;SDS011;27364;49.026;8.712;2023-04-06T12:41:13;9.43;;;7.18;;
41677;SDS011;27364;49.026;8.712;2023-04-06T12:43:43;8.95;;;6.65;;
41677;SDS011;27364;49.026;8.712;2023-04-06T12:46:09;8.20;;;6.95;;
41677;SDS011;27364;49.026;8.712;2023-04-06T12:48:35;9.18;;;6.70;;
41677;SDS011;27364;49.026;8.712;2023-04-06T12:51:03;10.98;;;7.18;;
41677;SDS011;27364;49.026;8.712;2023-04-06T12:53:30;9.50;;;6.53;;
41677;SDS011;27364;49.026;8.712;2023-04-06T12:55:56;9.25;;;6.78;;
41677;SDS011;27364;49.026;8.712;2023-04-06T12:58:23;10.93;;;7.65;;
41677;SDS011;27364;49.026;8.712;2023-04-06T13:00:51;11.00;;;7.50;;
41677;SDS011;27364;49.026;8.712;2023-04-06T13:03:18;8.13;;;7.13;;
41677;SDS011;27364;49.026;8.712;2023-04-06T13:05:44;9.88;;;7.47;;
41677;SDS011;27364;49.026;8.712;2023-04-06T13:08:11;8.90;;;6.82;;
41677;SDS011;27364;49.026;8.712;2023-04-06T13:10:37;9.50;;;6.85;;
41677;SDS011;27364;49.026;8.712;2023-04-06T13:13:03;9.02;;;6.93;;
41677;SDS011;27364;49.026;8.712;2023-04-06T13:15:29;9.15;;;6.85;;
41677;SDS011;27364;49.026;8.712;2023-04-06T13:17:57;8.85;;;6.55;;
41677;SDS011;27364;49.026;8.712;2023-04-06T13:20:22;9.63;;;6.72;;
41677;SDS011;27364;49.026;8.712;2023-04-06T13:22:49;10.38;;;6.22;;
41677;SDS011;27364;49.026;8.712;2023-04-06T13:25:15;9.00;;;6.38;;
41677;SDS011;27364;49.026;8.712;2023-04-06T13:27:40;8.57;;;5.93;;
41677;SDS011;27364;49.026;8.712;2023-04-06T13:32:34;8.38;;;5.20;;
41677;SDS011;27364;49.026;8.712;2023-04-06T13:35:00;8.85;;;6.18;;
41677;SDS011;27364;49.026;8.712;2023-04-06T13:37:27;10.82;;;8.18;;
41677;SDS011;27364;49.026;8.712;2023-04-06T13:39:52;6.95;;;5.60;;
41677;SDS011;27364;49.026;8.712;2023-04-06T13:42:18;7.78;;;5.43;;
41677;SDS011;27364;49.026;8.712;2023-04-06T13:44:44;9.55;;;5.88;;
41677;SDS011;27364;49.026;8.712;2023-04-06T13:47:11;8.23;;;5.95;;
41677;SDS011;27364;49.026;8.712;2023-04-06T13:49:37;8.82;;;6.57;;
41677;SDS011;27364;49.026;8.712;2023-04-06T13:52:03;7.25;;;5.78;;
41677;SDS011;27364;49.026;8.712;2023-04-06T13:54:29;8.40;;;5.88;;
41677;SDS011;27364;49.026;8.712;2023-04-06T13:56:54;8.65;;;6.72;;
41677;SDS011;27364;49.026;8.712;2023-04-06T13:59:20;11.30;;;8.38;;
41677;SDS011;27364;49.026;8.712;2023-04-06T14:01:47;9.35;;;6.65;;
41677;SDS011;27364;49.026;8.712;2023-04-06T14:04:12;9.32;;;6.35;;
41677;SDS011;27364;49.026;8.712;2023-04-06T14:06:38;8.55;;;6.75;;
41677;SDS011;27364;49.026;8.712;2023-04-06T14:09:04;8.63;;;6.05;;
41677;SDS011;27364;49.026;8.712;2023-04-06T14:11:30;12.20;;;6.82;;
41677;SDS011;27364;49.026;8.712;2023-04-06T14:13:56;9.13;;;6.60;;
41677;SDS011;27364;49.026;8.712;2023-04-06T14:16:23;9.27;;;6.30;;
41677;SDS011;27364;49.026;8.712;2023-04-06T14:18:49;8.05;;;5.75;;
41677;SDS011;27364;49.026;8.712;2023-04-06T14:21:14;9.48;;;6.82;;
41677;SDS011;27364;49.026;8.712;2023-04-06T14:23:40;10.25;;;6.82;;
41677;SDS011;27364;49.026;8.712;2023-04-06T14:26:08;10.95;;;6.78;;
41677;SDS011;27364;49.026;8.712;2023-04-06T14:28:34;8.82;;;6.30;;
41677;SDS011;27364;49.026;8.712;2023-04-06T14:31:02;9.43;;;6.85;;
41677;SDS011;27364;49.026;8.712;2023-04-06T14:33:34;9.60;;;6.43;;
41677;SDS011;27364;49.026;8.712;2023-04-06T14:36:02;9.63;;;6.78;;
41677;SDS011;27364;49.026;8.712;2023-04-06T14:38:28;9.32;;;6.15;;
41677;SDS011;27364;49.026;8.712;2023-04-06T14:40:54;9.13;;;6.25;;
41677;SDS011;27364;49.026;8.712;2023-04-06T14:43:21;7.70;;;5.72;;
41677;SDS011;27364;49.026;8.712;2023-04-06T14:45:47;7.40;;;5.40;;
41677;SDS011;27364;49.026;8.712;2023-04-06T14:48:13;7.82;;;5.25;;
41677;SDS011;27364;49.026;8.712;2023-04-06T14:50:40;8.13;;;5.53;;
41677;SDS011;27364;49.026;8.712;2023-04-06T14:53:11;6.38;;;4.97;;
41677;SDS011;27364;49.026;8.712;2023-04-06T14:55:39;6.57;;;5.07;;